Data Viewer
| City | State | Eastern Time | Source | Temp | DewPt | RH | BP | 5 Min Precip | Wind Speed | Wind Dir | 5 Min Wind Max | 5 Min Wind Max Dir |
|---|---|---|---|---|---|---|---|---|---|---|---|---|
| Nantucket | MA | 2026-05-09 00:05 | ASOS | 48 | 43 | 81 | 29.96 | 10 | W | |||
| Nantucket | MA | 2026-05-09 07:05 | ASOS | 50 | 46 | 87 | 30.02 | 9 | S | |||
| Nantucket | MA | 2026-05-09 08:20 | ASOS | 52 | 48 | 87 | 30.00 | 8 | SSE | |||
| Nantucket | MA | 2026-05-09 08:15 | ASOS | 52 | 48 | 87 | 30.00 | 8 | SSE | |||
| Nantucket | MA | 2026-05-09 08:05 | ASOS | 52 | 48 | 87 | 30.01 | 8 | SSE | |||
| Nantucket | MA | 2026-05-09 07:53 | ASOS | 50 | 48 | 93 | 30.01 | 9 | S | |||
| Nantucket | MA | 2026-05-09 07:50 | ASOS | 50 | 48 | 94 | 30.01 | 8 | S | |||
| Nantucket | MA | 2026-05-09 07:40 | ASOS | 50 | 48 | 94 | 30.00 | 6 | ESE | |||
| Nantucket | MA | 2026-05-09 07:35 | ASOS | 50 | 48 | 94 | 30.00 | 3 | SE | |||
| Nantucket | MA | 2026-05-09 07:30 | ASOS | 50 | 46 | 87 | 30.00 | 5 | ESE | |||
| Nantucket | MA | 2026-05-09 07:25 | ASOS | 50 | 46 | 87 | 30.01 | 5 | SSE | |||
| Nantucket | MA | 2026-05-09 07:20 | ASOS | 50 | 46 | 87 | 30.02 | 6 | S | |||
| Nantucket | MA | 2026-05-09 07:15 | ASOS | 50 | 46 | 87 | 30.02 | 9 | S | |||
| Nantucket | MA | 2026-05-09 07:00 | ASOS | 50 | 46 | 87 | 30.02 | 9 | S | |||
| Nantucket | MA | 2026-05-09 08:40 | ASOS | 52 | 48 | 87 | 30.00 | 9 | SSE | |||
| Nantucket | MA | 2026-05-09 06:55 | ASOS | 50 | 46 | 87 | 30.01 | 9 | S | |||
| Nantucket | MA | 2026-05-09 06:40 | ASOS | 50 | 46 | 87 | 29.99 | 5 | SE | |||
| Nantucket | MA | 2026-05-09 06:35 | ASOS | 50 | 46 | 87 | 29.99 | 6 | SSE | |||
| Nantucket | MA | 2026-05-09 06:30 | ASOS | 50 | 46 | 87 | 29.99 | 6 | SSE | |||
| Nantucket | MA | 2026-05-09 06:25 | ASOS | 50 | 46 | 87 | 29.99 | 6 | S | |||
| Nantucket | MA | 2026-05-09 06:20 | ASOS | 50 | 46 | 87 | 29.99 | 7 | S | |||
| Nantucket | MA | 2026-05-09 06:15 | ASOS | 48 | 46 | 93 | 29.99 | 6 | S | |||
| Nantucket | MA | 2026-05-09 06:05 | ASOS | 48 | 46 | 93 | 29.99 | 6 | S | |||
| Nantucket | MA | 2026-05-09 06:00 | ASOS | 48 | 46 | 93 | 29.99 | 5 | S | |||
| Nantucket | MA | 2026-05-09 05:55 | ASOS | 48 | 46 | 93 | 29.99 | 7 | S | |||
| Nantucket | MA | 2026-05-09 05:53 | ASOS | 49 | 46 | 90 | 29.98 | 6 | S | |||
| Nantucket | MA | 2026-05-09 05:50 | ASOS | 48 | 46 | 93 | 29.98 | 7 | S | |||
| Nantucket | MA | 2026-05-09 08:25 | ASOS | 52 | 48 | 87 | 30.00 | 9 | SSE | |||
| Nantucket | MA | 2026-05-09 08:50 | ASOS | 52 | 48 | 87 | 30.00 | 9 | SSE | |||
| Nantucket | MA | 2026-05-09 05:40 | ASOS | 48 | 46 | 93 | 29.98 | 8 | S | |||
| Nantucket | MA | 2026-05-09 11:00 | ASOS | 55 | 48 | 77 | 30.00 | 18 | S | |||
| Nantucket | MA | 2026-05-09 22:53 | ASOS | 52 | 50 | 93 | 29.92 | 17 | SE | |||
| Nantucket | MA | 2026-05-09 22:05 | ASOS | 52 | 48 | 87 | 29.97 | 8 | SSE | |||
| Nantucket | MA | 2026-05-09 20:53 | ASOS | 54 | 46 | 75 | 30.00 | 10 | SW | |||
| Nantucket | MA | 2026-05-09 18:53 | ASOS | 53 | 47 | 80 | 29.95 | 13 | S | |||
| Nantucket | MA | 2026-05-09 17:53 | ASOS | 55 | 46 | 72 | 29.95 | 16 | S | |||
| Nantucket | MA | 2026-05-09 14:53 | ASOS | 57 | 45 | 64 | 29.95 | 18 | S | |||
| Nantucket | MA | 2026-05-09 14:50 | ASOS | 57 | 44 | 63 | 29.95 | 18 | S | |||
| Nantucket | MA | 2026-05-09 13:53 | ASOS | 56 | 47 | 72 | 29.98 | 15 | SSW | |||
| Nantucket | MA | 2026-05-09 12:53 | ASOS | 56 | 47 | 72 | 29.98 | 15 | S | |||
| Nantucket | MA | 2026-05-09 11:53 | ASOS | 56 | 47 | 72 | 29.99 | 13 | S | |||
| Nantucket | MA | 2026-05-09 11:15 | ASOS | 55 | 48 | 77 | 30.00 | 15 | S | |||
| Nantucket | MA | 2026-05-09 11:05 | ASOS | 55 | 48 | 77 | 30.00 | 20 | S | |||
| Nantucket | MA | 2026-05-09 10:53 | ASOS | 56 | 48 | 75 | 30.00 | 17 | S | |||
| Nantucket | MA | 2026-05-09 08:55 | ASOS | 52 | 48 | 87 | 30.00 | 10 | SSE | |||
| Nantucket | MA | 2026-05-09 10:50 | ASOS | 55 | 48 | 77 | 30.00 | 18 | S | |||
| Nantucket | MA | 2026-05-09 10:40 | ASOS | 54 | 48 | 82 | 30.00 | 16 | S | |||
| Nantucket | MA | 2026-05-09 10:25 | ASOS | 54 | 48 | 82 | 30.00 | 14 | S | |||
| Nantucket | MA | 2026-05-09 10:15 | ASOS | 54 | 48 | 82 | 30.00 | 14 | S | |||
| Nantucket | MA | 2026-05-09 10:05 | ASOS | 54 | 48 | 82 | 30.00 | 12 | S | |||
| Nantucket | MA | 2026-05-09 09:55 | ASOS | 54 | 48 | 82 | 30.00 | 12 | SSE | |||
| Nantucket | MA | 2026-05-09 09:53 | ASOS | 53 | 48 | 83 | 30.00 | 10 | S | |||
| Nantucket | MA | 2026-05-09 09:40 | ASOS | 54 | 48 | 82 | 30.00 | 12 | S | |||
| Nantucket | MA | 2026-05-09 09:25 | ASOS | 54 | 48 | 82 | 29.99 | 10 | SSE | |||
| Nantucket | MA | 2026-05-09 09:15 | ASOS | 54 | 48 | 82 | 30.00 | 12 | S | |||
| Nantucket | MA | 2026-05-09 09:10 | ASOS | 54 | 50 | 88 | 29.99 | 15 | SSE | |||
| Nantucket | MA | 2026-05-09 09:05 | ASOS | 54 | 48 | 82 | 30.00 | 12 | SSE | |||
| Nantucket | MA | 2026-05-09 05:45 | ASOS | 48 | 46 | 93 | 29.98 | 8 | S | |||
| Nantucket | MA | 2026-05-09 05:35 | ASOS | 48 | 46 | 93 | 29.98 | 9 | S | |||
| Nantucket | MA | 2026-05-09 00:15 | ASOS | 48 | 45 | 87 | 29.96 | 12 | W | |||
| Nantucket | MA | 2026-05-09 01:45 | ASOS | 48 | 45 | 87 | 29.97 | 8 | WSW | |||
| Nantucket | MA | 2026-05-09 02:40 | ASOS | 48 | 45 | 87 | 29.97 | 7 | W | |||
| Nantucket | MA | 2026-05-09 02:35 | ASOS | 48 | 45 | 87 | 29.97 | 6 | W | |||
| Nantucket | MA | 2026-05-09 02:30 | ASOS | 48 | 45 | 87 | 29.97 | 8 | WSW | |||
| Nantucket | MA | 2026-05-09 02:25 | ASOS | 48 | 45 | 87 | 29.97 | 9 | W | |||
| Nantucket | MA | 2026-05-09 02:20 | ASOS | 48 | 45 | 87 | 29.97 | 9 | WSW | |||
| Nantucket | MA | 2026-05-09 02:15 | ASOS | 48 | 45 | 87 | 29.98 | 10 | WSW | |||
| Nantucket | MA | 2026-05-09 02:05 | ASOS | 48 | 45 | 87 | 29.98 | 9 | WSW | |||
| Nantucket | MA | 2026-05-09 02:00 | ASOS | 48 | 45 | 87 | 29.98 | 9 | WSW | |||
| Nantucket | MA | 2026-05-09 01:55 | ASOS | 48 | 45 | 87 | 29.97 | 8 | WSW | |||
| Nantucket | MA | 2026-05-09 01:53 | ASOS | 49 | 45 | 86 | 29.97 | 9 | WSW | |||
| Nantucket | MA | 2026-05-09 01:50 | ASOS | 48 | 45 | 87 | 29.97 | 9 | WSW | |||
| Nantucket | MA | 2026-05-09 01:40 | ASOS | 46 | 45 | 93 | 29.97 | 9 | WSW | |||
| Nantucket | MA | 2026-05-09 02:50 | ASOS | 48 | 45 | 87 | 29.98 | 7 | W | |||
| Nantucket | MA | 2026-05-09 01:30 | ASOS | 48 | 45 | 87 | 29.97 | 8 | WSW | |||
| Nantucket | MA | 2026-05-09 01:20 | ASOS | 48 | 45 | 87 | 29.97 | 8 | W | |||
| Nantucket | MA | 2026-05-09 01:15 | ASOS | 48 | 45 | 87 | 29.97 | 8 | W | |||
| Nantucket | MA | 2026-05-09 01:10 | ASOS | 48 | 45 | 87 | 29.97 | 8 | W | |||
| Nantucket | MA | 2026-05-09 01:05 | ASOS | 46 | 45 | 93 | 29.97 | 8 | W | |||
| Nantucket | MA | 2026-05-09 00:55 | ASOS | 48 | 45 | 87 | 29.97 | 8 | W | |||
| Nantucket | MA | 2026-05-09 00:53 | ASOS | 48 | 44 | 86 | 29.96 | 8 | W | |||
| Nantucket | MA | 2026-05-09 00:50 | ASOS | 48 | 45 | 87 | 29.96 | 8 | W | |||
| Nantucket | MA | 2026-05-09 00:45 | ASOS | 48 | 45 | 87 | 29.96 | 8 | W | |||
| Nantucket | MA | 2026-05-09 00:40 | ASOS | 48 | 45 | 87 | 29.97 | 9 | W | |||
| Nantucket | MA | 2026-05-09 00:30 | ASOS | 48 | 43 | 81 | 29.96 | 9 | W | |||
| Nantucket | MA | 2026-05-09 00:25 | ASOS | 48 | 43 | 81 | 29.96 | 9 | W | |||
| Nantucket | MA | 2026-05-09 02:45 | ASOS | 48 | 45 | 87 | 29.97 | 6 | W | |||
| Nantucket | MA | 2026-05-09 02:53 | ASOS | 49 | 45 | 86 | 29.98 | 7 | W | |||
| Nantucket | MA | 2026-05-09 05:30 | ASOS | 48 | 46 | 93 | 29.98 | 9 | SSW | |||
| Nantucket | MA | 2026-05-09 04:25 | ASOS | 48 | 46 | 93 | 29.97 | 9 | SSW | |||
| Nantucket | MA | 2026-05-09 05:25 | ASOS | 48 | 46 | 93 | 29.98 | 7 | SSW | |||
| Nantucket | MA | 2026-05-09 05:20 | ASOS | 48 | 46 | 93 | 29.98 | 7 | SSW | |||
| Nantucket | MA | 2026-05-09 05:15 | ASOS | 48 | 46 | 93 | 29.98 | 7 | SSW | |||
| Nantucket | MA | 2026-05-09 05:05 | ASOS | 48 | 46 | 93 | 29.97 | 8 | S | |||
| Nantucket | MA | 2026-05-09 05:00 | ASOS | 48 | 46 | 93 | 29.97 | 9 | S | |||
| Nantucket | MA | 2026-05-09 04:55 | ASOS | 48 | 46 | 93 | 29.98 | 9 | SSW | |||
| Nantucket | MA | 2026-05-09 04:53 | ASOS | 49 | 46 | 90 | 29.98 | 9 | SSW | |||
| Nantucket | MA | 2026-05-09 04:50 | ASOS | 48 | 46 | 93 | 29.98 | 10 | SSW | |||
| Nantucket | MA | 2026-05-09 04:45 | ASOS | 48 | 46 | 93 | 29.98 | 10 | SSW | |||
| Nantucket | MA | 2026-05-09 04:40 | ASOS | 48 | 46 | 93 | 29.98 | 12 | SSW | |||
| Nantucket | MA | 2026-05-09 04:35 | ASOS | 48 | 46 | 93 | 29.98 | 9 | SSW | |||
| Nantucket | MA | 2026-05-09 04:30 | ASOS | 48 | 46 | 93 | 29.97 | 9 | SSW | |||
| Nantucket | MA | 2026-05-09 04:20 | ASOS | 48 | 46 | 93 | 29.97 | 13 | SSW | |||
| Nantucket | MA | 2026-05-09 02:55 | ASOS | 48 | 45 | 87 | 29.98 | 8 | W | |||
| Nantucket | MA | 2026-05-09 04:15 | ASOS | 48 | 45 | 87 | 29.97 | 12 | S | |||
| Nantucket | MA | 2026-05-09 04:05 | ASOS | 48 | 45 | 87 | 29.96 | 0 | N | |||
| Nantucket | MA | 2026-05-09 04:00 | ASOS | 48 | 45 | 87 | 29.96 | 0 | N | |||
| Nantucket | MA | 2026-05-09 03:55 | ASOS | 48 | 45 | 87 | 29.97 | 0 | N | |||
| Nantucket | MA | 2026-05-09 03:53 | ASOS | 49 | 45 | 86 | 29.97 | 0 | N | |||
| Nantucket | MA | 2026-05-09 03:50 | ASOS | 48 | 45 | 87 | 29.97 | 0 | N | |||
| Nantucket | MA | 2026-05-09 03:40 | ASOS | 48 | 45 | 87 | 29.97 | 0 | N | |||
| Nantucket | MA | 2026-05-09 03:35 | ASOS | 48 | 45 | 87 | 29.98 | 3 | SSW | |||
| Nantucket | MA | 2026-05-09 03:30 | ASOS | 48 | 45 | 87 | 29.97 | 0 | N | |||
| Nantucket | MA | 2026-05-09 03:10 | ASOS | 48 | 45 | 87 | 29.97 | 3 | NW | |||
| Nantucket | MA | 2026-05-09 03:05 | ASOS | 48 | 45 | 87 | 29.97 | 5 | WNW | |||
| Nantucket | MA | 2026-05-09 03:00 | ASOS | 48 | 45 | 87 | 29.98 | 6 | W | |||
| Nantucket | MA | 2026-05-09 23:53 | ASOS | 53 | 51 | 93 | 29.92 | 18 | SE |
data collection created in 0.020428895950317 (queried in 0.006512) rendered in: 0.00015401840209961

